Roseau, Minnesota
Current Conditions -  °F | °C
As of 5:14 AM on Saturday 25 Oct 2014 (Local Time) from KROX Reporting Station
Clear Clear  
Wind Chill: 37°   Ceiling: Unl
Heat Index: 43°   Visibility: 10mi
Dew Point: 34°   Wind: 9mph
Humidity: 70%   Direction: 270°W
Pressure: 29.9"   Gusts: NA
Location:  48.85°N, 95.76°W
Report Text: KROX 251014Z AUTO 27008KT 10SM CLR 06/01 A2990 RMK AO2
Loading
Personal Weather Stations






























Interactive Weather Map
Tropical Storm Tracking
New forecast layout! Learn more

10-Day Weather Forecast

Advertisements
Track Severe Weather on mobile